Horse Shoe Run, West Virginia
Current Conditions -  °F | °C
As of 6:15 AM on Saturday 25 Oct 2014 (Local Time) from K2G4 Reporting Station
Broken Clouds Broken Clouds  
Wind Chill: 40°   Ceiling: 3000
Heat Index: 45°   Visibility: 10mi
Dew Point: 39°   Wind: 9mph
Humidity: 81%   Direction: 240°WSW
Pressure: 29.98"   Gusts: NA
Location:  39.2905°N, 79.5107°W
Report Text: K2G4 251015Z AUTO 24008KT 222V282 10SM BKN030 07/04 A2998 RMK AO1
Loading
Personal Weather Stations






























Interactive Weather Map
Tropical Storm Tracking
New forecast layout! Learn more

10-Day Weather Forecast

Advertisements
Track Severe Weather on mobile